Time;durP1;ratioP1;P1;durP2;ratioP2;P2;SDS_P1;SDS_P2;PMS_P1;PMS_P2;Temp;Humidity;BMP_temperature;BMP_pressure;BME280_temperature;BME280_humidity;BME280_pressure;Samples;Min_cycle;Max_cycle;Signal;HPM_P1;HPM_P2
2022/07/15 00:01:50;;;;;;;3.47;1.30;;;;;;;;;;4982859;28;20015;-66
2022/07/15 00:04:16;;;;;;;2.37;1.27;;;;;;;;;;4983415;28;20277;-67
2022/07/15 00:06:41;;;;;;;10.45;1.67;;;;;;;;;;4983763;28;20435;-67
2022/07/15 00:09:06;;;;;;;8.45;1.80;;;;;;;;;;4987091;28;20382;-68
2022/07/15 00:11:31;;;;;;;4.32;1.20;;;;;;;;;;4989609;28;20018;-66
2022/07/15 00:13:57;;;;;;;4.05;1.17;;;;;;;;;;4986853;28;20033;-66
2022/07/15 00:16:22;;;;;;;8.68;1.40;;;;;;;;;;4990016;28;20023;-66
2022/07/15 00:18:47;;;;;;;8.17;1.50;;;;;;;;;;4982696;28;20030;-66
2022/07/15 00:21:12;;;;;;;9.63;1.70;;;;;;;;;;4982262;28;20269;-68
2022/07/15 00:23:38;;;;;;;4.35;1.30;;;;;;;;;;4982644;28;20389;-68
2022/07/15 00:26:03;;;;;;;3.85;1.05;;;;;;;;;;4983996;28;20264;-66
2022/07/15 00:28:28;;;;;;;2.17;1.25;;;;;;;;;;4983757;28;20463;-66
2022/07/15 00:30:55;;;;;;;8.27;1.30;;;;;;;;;;4985138;28;20034;-66
2022/07/15 00:33:20;;;;;;;6.07;1.65;;;;;;;;;;4987263;28;20022;-66
2022/07/15 00:35:45;;;;;;;10.90;1.77;;;;;;;;;;4984438;28;20510;-66
2022/07/15 00:38:11;;;;;;;4.30;1.40;;;;;;;;;;4985601;28;20157;-66
2022/07/15 00:40:43;;;;;;;9.88;1.40;;;;;;;;;;4983631;28;20045;-66
2022/07/15 00:43:08;;;;;;;12.30;2.60;;;;;;;;;;4982902;28;20032;-67
2022/07/15 00:45:34;;;;;;;9.15;1.80;;;;;;;;;;4982742;28;20415;-68
2022/07/15 00:47:59;;;;;;;6.85;1.58;;;;;;;;;;4982960;28;20026;-67
2022/07/15 00:50:26;;;;;;;6.47;1.40;;;;;;;;;;4982822;28;20231;-66
2022/07/15 00:52:58;;;;;;;6.60;1.33;;;;;;;;;;4983625;28;20033;-67
2022/07/15 00:55:24;;;;;;;8.88;2.03;;;;;;;;;;4989640;28;20109;-67
2022/07/15 00:57:49;;;;;;;5.90;2.00;;;;;;;;;;4983790;28;20108;-66
2022/07/15 01:00:15;;;;;;;11.70;1.85;;;;;;;;;;4984298;28;20026;-66
2022/07/15 01:02:42;;;;;;;6.63;2.30;;;;;;;;;;4982712;28;20030;-66
2022/07/15 01:05:10;;;;;;;6.70;1.77;;;;;;;;;;4982345;28;20065;-66
2022/07/15 01:07:35;;;;;;;9.50;3.55;;;;;;;;;;4989230;28;20022;-66
2022/07/15 01:10:00;;;;;;;8.50;1.67;;;;;;;;;;4986753;28;20053;-66
2022/07/15 01:12:26;;;;;;;7.57;1.67;;;;;;;;;;4986046;28;20746;-67
2022/07/15 01:14:51;;;;;;;8.38;2.22;;;;;;;;;;4982734;28;20278;-70
2022/07/15 01:17:16;;;;;;;8.43;1.88;;;;;;;;;;4982729;28;20049;-66
2022/07/15 01:19:42;;;;;;;5.03;1.55;;;;;;;;;;4983296;28;20125;-65
2022/07/15 01:22:07;;;;;;;12.87;2.00;;;;;;;;;;4985553;28;20070;-66
2022/07/15 01:24:32;;;;;;;11.50;1.95;;;;;;;;;;4983541;28;20281;-67
2022/07/15 01:26:58;;;;;;;7.60;1.90;;;;;;;;;;4984949;28;20022;-66
2022/07/15 01:29:23;;;;;;;6.70;2.20;;;;;;;;;;4981546;28;20042;-66
2022/07/15 01:31:48;;;;;;;8.30;1.80;;;;;;;;;;4982780;28;20619;-66
2022/07/15 01:34:13;;;;;;;7.90;2.53;;;;;;;;;;4982678;28;20273;-68
2022/07/15 01:36:38;;;;;;;5.95;1.75;;;;;;;;;;4990678;28;20288;-66
2022/07/15 01:39:04;;;;;;;13.37;2.13;;;;;;;;;;4992339;28;20019;-66
2022/07/15 01:41:29;;;;;;;15.27;2.47;;;;;;;;;;4986141;28;20270;-67
2022/07/15 01:43:54;;;;;;;7.38;1.70;;;;;;;;;;4989422;28;20510;-66
2022/07/15 01:46:19;;;;;;;10.33;1.97;;;;;;;;;;4987355;28;20030;-67
2022/07/15 01:51:29;;;;;;;13.70;1.83;;;;;;;;;;4990431;28;20410;-68
2022/07/15 01:53:54;;;;;;;14.93;2.72;;;;;;;;;;4991975;28;20014;-66
2022/07/15 01:56:20;;;;;;;11.40;2.28;;;;;;;;;;4992474;28;20019;-68
2022/07/15 01:58:45;;;;;;;6.40;1.70;;;;;;;;;;4988831;28;20415;-66
2022/07/15 02:01:10;;;;;;;7.90;1.77;;;;;;;;;;4991570;28;20261;-67
2022/07/15 02:03:35;;;;;;;6.90;2.08;;;;;;;;;;4990323;28;20376;-66
2022/07/15 02:06:00;;;;;;;10.27;2.30;;;;;;;;;;4989538;28;20022;-67
2022/07/15 02:08:26;;;;;;;12.45;2.22;;;;;;;;;;4991014;28;20289;-66
2022/07/15 02:10:51;;;;;;;12.53;2.17;;;;;;;;;;4991951;28;20032;-66
2022/07/15 02:13:16;;;;;;;10.23;2.10;;;;;;;;;;4992061;28;20280;-67
2022/07/15 02:15:41;;;;;;;9.52;2.10;;;;;;;;;;4992892;28;20023;-66
2022/07/15 02:18:07;;;;;;;10.80;2.53;;;;;;;;;;4988637;28;20088;-66
2022/07/15 02:20:33;;;;;;;12.30;2.25;;;;;;;;;;4991283;28;20026;-65
2022/07/15 02:22:59;;;;;;;10.98;2.13;;;;;;;;;;4990187;28;20025;-68
2022/07/15 02:25:27;;;;;;;7.30;2.10;;;;;;;;;;4991264;28;20022;-67
2022/07/15 02:27:56;;;;;;;13.05;2.17;;;;;;;;;;4989692;28;20056;-67
2022/07/15 02:30:25;;;;;;;12.57;2.38;;;;;;;;;;4989966;28;20026;-66
2022/07/15 02:32:51;;;;;;;9.50;2.45;;;;;;;;;;4990576;28;20042;-66
2022/07/15 02:35:16;;;;;;;15.77;2.53;;;;;;;;;;4988020;28;20154;-66
2022/07/15 02:37:42;;;;;;;15.05;2.63;;;;;;;;;;4987328;28;20361;-66
2022/07/15 02:40:08;;;;;;;10.57;1.98;;;;;;;;;;4989484;28;20050;-66
2022/07/15 02:42:33;;;;;;;7.20;2.33;;;;;;;;;;4992025;28;20014;-67
2022/07/15 02:44:59;;;;;;;10.40;2.53;;;;;;;;;;4988888;28;20045;-67
2022/07/15 02:47:24;;;;;;;9.27;1.90;;;;;;;;;;4990383;28;20022;-66
2022/07/15 02:49:49;;;;;;;13.60;2.97;;;;;;;;;;4988679;28;22172;-66
2022/07/15 02:52:14;;;;;;;9.77;1.83;;;;;;;;;;4990981;28;20281;-66
2022/07/15 02:54:39;;;;;;;10.93;2.08;;;;;;;;;;4991604;28;20360;-66
2022/07/15 02:57:04;;;;;;;17.85;2.80;;;;;;;;;;4989757;28;20066;-66
2022/07/15 02:59:30;;;;;;;7.57;1.80;;;;;;;;;;4989443;28;20097;-66
2022/07/15 03:01:55;;;;;;;15.30;2.30;;;;;;;;;;4986204;28;20296;-66
2022/07/15 03:04:20;;;;;;;12.88;1.48;;;;;;;;;;4986523;28;20278;-66
2022/07/15 03:06:46;;;;;;;11.03;1.77;;;;;;;;;;4990017;28;20030;-66
2022/07/15 03:09:11;;;;;;;9.20;1.93;;;;;;;;;;4988837;28;20316;-66
2022/07/15 03:11:36;;;;;;;12.63;2.20;;;;;;;;;;4990736;28;20669;-66
2022/07/15 03:14:02;;;;;;;7.07;1.87;;;;;;;;;;4989959;28;20030;-66
2022/07/15 03:16:27;;;;;;;20.52;1.95;;;;;;;;;;4988928;28;20278;-66
2022/07/15 03:18:53;;;;;;;15.18;2.00;;;;;;;;;;4988838;28;20025;-66
2022/07/15 03:21:18;;;;;;;11.82;2.03;;;;;;;;;;4989620;28;20018;-66
2022/07/15 03:23:43;;;;;;;10.20;2.30;;;;;;;;;;4987943;28;20054;-66
2022/07/15 03:26:08;;;;;;;12.07;2.27;;;;;;;;;;5028151;22;20308;-68
2022/07/15 03:28:33;;;;;;;8.87;2.43;;;;;;;;;;5009187;28;20276;-69
2022/07/15 03:30:59;;;;;;;10.80;1.83;;;;;;;;;;5009472;28;20411;-68
2022/07/15 03:33:24;;;;;;;11.98;2.38;;;;;;;;;;5009118;28;20380;-69
2022/07/15 03:35:49;;;;;;;8.80;2.40;;;;;;;;;;5004405;28;20410;-68
2022/07/15 03:38:14;;;;;;;14.67;2.20;;;;;;;;;;5010106;28;20387;-69
2022/07/15 03:40:39;;;;;;;13.38;2.15;;;;;;;;;;5007105;28;20295;-68
2022/07/15 03:43:04;;;;;;;11.33;2.90;;;;;;;;;;5010461;28;20022;-68
2022/07/15 03:45:30;;;;;;;10.43;2.17;;;;;;;;;;5008545;28;20295;-69
2022/07/15 03:47:55;;;;;;;12.57;2.58;;;;;;;;;;5008292;28;20281;-68
2022/07/15 03:50:20;;;;;;;13.73;1.90;;;;;;;;;;5007108;28;20030;-69
2022/07/15 03:52:45;;;;;;;15.98;2.90;;;;;;;;;;5006698;28;20372;-69
2022/07/15 03:55:11;;;;;;;10.10;1.87;;;;;;;;;;5008457;28;20119;-69
2022/07/15 03:57:36;;;;;;;11.70;2.13;;;;;;;;;;5008786;28;20276;-69
2022/07/15 04:00:01;;;;;;;8.35;2.00;;;;;;;;;;5006027;28;20105;-68
2022/07/15 04:02:27;;;;;;;8.43;2.00;;;;;;;;;;5002923;28;20072;-69
2022/07/15 04:04:52;;;;;;;10.83;1.83;;;;;;;;;;5008541;28;20018;-68
2022/07/15 04:07:17;;;;;;;9.48;1.95;;;;;;;;;;5008345;28;20299;-68
2022/07/15 04:09:42;;;;;;;10.60;2.53;;;;;;;;;;5006922;28;20486;-68
2022/07/15 04:12:08;;;;;;;17.40;2.57;;;;;;;;;;5008946;28;20018;-69
2022/07/15 04:14:33;;;;;;;14.05;2.55;;;;;;;;;;5003450;28;21021;-69
2022/07/15 04:16:58;;;;;;;14.83;2.53;;;;;;;;;;5006075;28;20425;-68
2022/07/15 04:19:23;;;;;;;12.63;1.97;;;;;;;;;;5006336;28;20315;-68
2022/07/15 04:21:48;;;;;;;23.30;2.40;;;;;;;;;;5008786;28;20276;-69
2022/07/15 04:24:14;;;;;;;15.07;2.37;;;;;;;;;;5008592;28;20276;-69
2022/07/15 04:26:39;;;;;;;16.27;2.90;;;;;;;;;;5006560;28;20364;-69
2022/07/15 04:29:04;;;;;;;14.40;3.40;;;;;;;;;;5005654;28;20742;-68
2022/07/15 04:31:29;;;;;;;10.87;2.67;;;;;;;;;;5005980;28;20285;-68
2022/07/15 04:33:55;;;;;;;13.60;2.15;;;;;;;;;;5006953;28;20268;-69
2022/07/15 04:36:20;;;;;;;17.17;2.60;;;;;;;;;;5004946;28;20064;-69
2022/07/15 04:38:45;;;;;;;13.73;2.20;;;;;;;;;;5010256;28;20095;-69
2022/07/15 04:41:10;;;;;;;18.87;2.00;;;;;;;;;;5005930;28;20269;-69
2022/07/15 04:43:35;;;;;;;7.80;2.10;;;;;;;;;;5005114;28;20277;-68
2022/07/15 04:46:00;;;;;;;18.90;2.77;;;;;;;;;;5006701;28;20025;-69
2022/07/15 04:51:09;;;;;;;18.20;2.42;;;;;;;;;;5012044;28;20340;-69
2022/07/15 04:53:35;;;;;;;10.13;2.67;;;;;;;;;;5002401;28;20022;-68
2022/07/15 04:56:00;;;;;;;11.70;1.87;;;;;;;;;;5002144;28;21034;-68
2022/07/15 04:58:25;;;;;;;10.57;2.30;;;;;;;;;;5001714;28;20548;-69
2022/07/15 05:00:50;;;;;;;18.30;2.95;;;;;;;;;;5006540;28;20265;-68
2022/07/15 05:03:15;;;;;;;17.75;2.78;;;;;;;;;;4999650;28;20028;-68
2022/07/15 05:05:41;;;;;;;14.45;2.33;;;;;;;;;;5003199;28;20099;-69
2022/07/15 05:08:07;;;;;;;17.35;3.28;;;;;;;;;;5006023;28;20022;-68
2022/07/15 05:10:32;;;;;;;12.63;3.08;;;;;;;;;;5008469;28;20049;-70
2022/07/15 05:12:57;;;;;;;16.17;2.70;;;;;;;;;;5006441;28;20478;-70
2022/07/15 05:15:23;;;;;;;16.63;2.65;;;;;;;;;;5008998;28;20017;-70
2022/07/15 05:17:48;;;;;;;14.75;2.67;;;;;;;;;;5007883;28;21772;-70
2022/07/15 05:20:13;;;;;;;12.43;2.13;;;;;;;;;;5008479;28;20474;-70
2022/07/15 05:22:38;;;;;;;14.98;3.00;;;;;;;;;;5005730;28;20030;-69
2022/07/15 05:25:04;;;;;;;12.30;2.80;;;;;;;;;;5007244;28;20354;-69
2022/07/15 05:27:30;;;;;;;18.35;2.80;;;;;;;;;;5005366;28;20784;-70
2022/07/15 05:29:55;;;;;;;12.45;3.38;;;;;;;;;;5009569;28;20033;-69
2022/07/15 05:32:20;;;;;;;12.98;2.42;;;;;;;;;;5006051;28;20030;-69
2022/07/15 05:34:46;;;;;;;16.37;2.83;;;;;;;;;;5008660;28;20026;-70
2022/07/15 05:37:11;;;;;;;13.45;2.75;;;;;;;;;;5007495;28;20026;-69
2022/07/15 05:39:37;;;;;;;8.30;2.03;;;;;;;;;;5007466;28;20017;-69
2022/07/15 05:42:02;;;;;;;14.63;3.05;;;;;;;;;;5010886;28;20105;-70
2022/07/15 05:44:27;;;;;;;15.70;3.08;;;;;;;;;;5008037;28;20030;-69
2022/07/15 05:46:52;;;;;;;13.30;3.00;;;;;;;;;;5006796;28;20038;-69
2022/07/15 05:49:18;;;;;;;63.25;15.32;;;;;;;;;;5006014;28;20273;-69
2022/07/15 05:51:44;;;;;;;153.50;43.97;;;;;;;;;;5008196;28;20676;-69
2022/07/15 05:54:13;;;;;;;83.15;24.42;;;;;;;;;;5007023;28;20102;-69
2022/07/15 05:56:38;;;;;;;40.72;10.95;;;;;;;;;;5005343;28;20493;-70
2022/07/15 05:59:03;;;;;;;171.20;48.67;;;;;;;;;;5007354;28;20026;-69
2022/07/15 06:01:28;;;;;;;41.10;10.13;;;;;;;;;;5011493;28;20357;-69
2022/07/15 06:03:53;;;;;;;41.40;14.03;;;;;;;;;;4990864;28;20613;-70
2022/07/15 06:06:19;;;;;;;22.53;4.73;;;;;;;;;;5009756;28;21403;-70
2022/07/15 06:08:44;;;;;;;23.63;5.22;;;;;;;;;;5008615;28;20371;-70
2022/07/15 06:11:11;;;;;;;14.48;3.03;;;;;;;;;;5010560;28;20026;-70
2022/07/15 06:13:38;;;;;;;49.13;7.28;;;;;;;;;;5011451;28;20076;-70
2022/07/15 06:16:03;;;;;;;11.30;1.67;;;;;;;;;;5007031;28;20049;-70
2022/07/15 06:18:29;;;;;;;16.73;2.22;;;;;;;;;;5008272;28;20050;-71
2022/07/15 06:20:54;;;;;;;14.10;1.93;;;;;;;;;;5006051;28;20033;-70
2022/07/15 06:23:20;;;;;;;21.55;5.20;;;;;;;;;;5009843;28;20284;-70
2022/07/15 06:25:45;;;;;;;52.85;18.00;;;;;;;;;;5009411;28;20018;-70
2022/07/15 06:28:10;;;;;;;77.10;27.50;;;;;;;;;;5007811;28;20022;-69
2022/07/15 06:30:36;;;;;;;68.38;16.83;;;;;;;;;;5005323;28;20273;-69
2022/07/15 06:33:01;;;;;;;19.25;4.22;;;;;;;;;;5009983;28;20105;-68
2022/07/15 06:35:26;;;;;;;16.03;4.73;;;;;;;;;;5009994;28;20029;-69
2022/07/15 06:37:51;;;;;;;9.07;1.83;;;;;;;;;;5010230;28;20363;-69
2022/07/15 06:40:17;;;;;;;23.57;4.37;;;;;;;;;;5008876;28;20033;-68
2022/07/15 06:42:42;;;;;;;14.25;2.78;;;;;;;;;;5008763;28;20277;-68
2022/07/15 06:45:07;;;;;;;9.23;2.07;;;;;;;;;;5008043;28;20069;-68
2022/07/15 06:47:32;;;;;;;8.02;1.52;;;;;;;;;;5008941;28;20033;-68
2022/07/15 06:49:59;;;;;;;9.53;1.83;;;;;;;;;;5010720;28;20026;-68
2022/07/15 06:52:24;;;;;;;4.72;1.60;;;;;;;;;;5011022;28;20579;-68
2022/07/15 06:54:50;;;;;;;10.40;1.70;;;;;;;;;;5007738;28;20026;-68
2022/07/15 06:57:16;;;;;;;7.07;1.17;;;;;;;;;;5010254;28;20408;-68
2022/07/15 06:59:42;;;;;;;10.32;1.50;;;;;;;;;;5007589;28;20468;-69
2022/07/15 07:02:07;;;;;;;7.05;1.83;;;;;;;;;;5010891;28;20026;-68
2022/07/15 07:04:32;;;;;;;9.53;1.17;;;;;;;;;;5009397;28;20099;-68
2022/07/15 07:06:58;;;;;;;12.63;1.97;;;;;;;;;;5011082;28;20281;-68
2022/07/15 07:09:23;;;;;;;11.10;1.83;;;;;;;;;;5009457;28;20102;-68
2022/07/15 07:11:48;;;;;;;7.80;2.17;;;;;;;;;;5007451;28;20033;-68
2022/07/15 07:14:13;;;;;;;6.30;1.57;;;;;;;;;;5009819;28;20286;-68
2022/07/15 07:16:39;;;;;;;10.70;2.60;;;;;;;;;;5008772;28;20299;-68
2022/07/15 07:19:04;;;;;;;10.52;2.30;;;;;;;;;;5011209;28;20272;-68
2022/07/15 07:21:29;;;;;;;8.57;1.90;;;;;;;;;;4995264;28;20021;-68
2022/07/15 07:23:54;;;;;;;12.20;2.65;;;;;;;;;;5009674;28;20013;-68
2022/07/15 07:26:20;;;;;;;191.37;55.07;;;;;;;;;;5007321;28;20453;-68
2022/07/15 07:28:45;;;;;;;19.70;4.57;;;;;;;;;;5010638;28;20272;-68
2022/07/15 07:31:12;;;;;;;16.02;2.80;;;;;;;;;;5009779;28;20307;-68
2022/07/15 07:33:38;;;;;;;75.32;22.92;;;;;;;;;;5008798;28;20041;-69
2022/07/15 07:36:04;;;;;;;18.65;7.03;;;;;;;;;;5009483;28;20486;-69
2022/07/15 07:38:30;;;;;;;12.10;1.65;;;;;;;;;;5008084;28;20017;-69
2022/07/15 07:40:55;;;;;;;6.10;1.35;;;;;;;;;;5009410;28;20063;-69
2022/07/15 07:43:20;;;;;;;12.38;1.58;;;;;;;;;;4988589;28;20025;-69
2022/07/15 07:45:46;;;;;;;10.43;1.60;;;;;;;;;;5008544;28;20084;-69
2022/07/15 07:48:11;;;;;;;9.73;2.65;;;;;;;;;;5007819;28;20112;-69
2022/07/15 07:50:37;;;;;;;7.85;1.65;;;;;;;;;;5010097;28;20026;-69
2022/07/15 07:53:03;;;;;;;4.05;0.90;;;;;;;;;;5009615;28;20116;-69
2022/07/15 07:55:28;;;;;;;8.00;1.58;;;;;;;;;;5007736;28;20038;-70
2022/07/15 07:57:54;;;;;;;6.00;1.87;;;;;;;;;;5008358;28;20382;-71
2022/07/15 08:00:20;;;;;;;12.55;1.55;;;;;;;;;;5008743;28;20308;-71
2022/07/15 08:02:46;;;;;;;4.90;1.25;;;;;;;;;;5009716;28;20051;-71
2022/07/15 08:05:11;;;;;;;3.13;1.10;;;;;;;;;;5006227;28;20463;-69
2022/07/15 08:07:37;;;;;;;174.80;51.13;;;;;;;;;;5009770;28;20052;-69
2022/07/15 08:10:03;;;;;;;5.65;1.30;;;;;;;;;;5008241;28;20026;-69
2022/07/15 08:12:28;;;;;;;7.40;2.25;;;;;;;;;;5009797;28;20053;-69
2022/07/15 08:14:54;;;;;;;8.15;1.90;;;;;;;;;;5008432;28;20378;-69
2022/07/15 08:17:20;;;;;;;5.72;1.17;;;;;;;;;;5009258;28;20026;-69
2022/07/15 08:19:45;;;;;;;151.88;54.58;;;;;;;;;;5007741;28;20827;-69
2022/07/15 08:22:10;;;;;;;12.23;3.00;;;;;;;;;;5010559;28;20029;-70
2022/07/15 08:24:35;;;;;;;12.73;2.23;;;;;;;;;;5006053;28;20280;-70
2022/07/15 08:27:02;;;;;;;41.58;12.07;;;;;;;;;;5009532;28;20284;-70
2022/07/15 08:29:27;;;;;;;70.90;23.70;;;;;;;;;;5007966;28;20048;-69
2022/07/15 08:31:52;;;;;;;8.70;2.30;;;;;;;;;;5005411;28;20041;-70
2022/07/15 08:34:18;;;;;;;6.23;1.50;;;;;;;;;;5004789;28;20018;-69
2022/07/15 08:36:43;;;;;;;148.93;40.53;;;;;;;;;;5005433;28;20360;-69
2022/07/15 08:39:08;;;;;;;61.70;17.70;;;;;;;;;;5005505;28;20024;-70
2022/07/15 08:41:34;;;;;;;5.53;1.50;;;;;;;;;;5008070;28;20097;-70
2022/07/15 08:43:59;;;;;;;9.63;1.65;;;;;;;;;;5007234;28;20479;-70
2022/07/15 08:46:26;;;;;;;4.23;1.40;;;;;;;;;;5003443;28;20037;-69
2022/07/15 08:48:51;;;;;;;11.77;1.25;;;;;;;;;;5004369;28;20033;-70
2022/07/15 08:51:18;;;;;;;4.38;1.05;;;;;;;;;;5005153;28;20030;-70
2022/07/15 08:53:44;;;;;;;7.15;1.48;;;;;;;;;;5004899;28;20022;-70
2022/07/15 08:56:09;;;;;;;20.20;1.58;;;;;;;;;;5004182;28;20068;-70
2022/07/15 08:58:36;;;;;;;4.23;1.20;;;;;;;;;;5007064;28;20462;-70
2022/07/15 09:01:02;;;;;;;4.72;1.35;;;;;;;;;;4987634;28;20458;-70
2022/07/15 09:03:27;;;;;;;5.50;1.30;;;;;;;;;;4989796;28;20022;-70
2022/07/15 09:05:52;;;;;;;7.03;1.30;;;;;;;;;;5003849;28;20096;-70
2022/07/15 09:08:19;;;;;;;13.23;1.53;;;;;;;;;;5009379;28;20100;-71
2022/07/15 09:10:46;;;;;;;8.02;1.25;;;;;;;;;;5007101;28;20026;-70
2022/07/15 09:13:31;;;;;;;13.38;2.58;;;;;;;;;;5007182;28;20014;-70
2022/07/15 09:15:57;;;;;;;21.60;5.50;;;;;;;;;;5006503;28;20061;-70
2022/07/15 09:18:24;;;;;;;16.00;3.83;;;;;;;;;;5005046;28;20021;-70
2022/07/15 09:20:49;;;;;;;5.00;1.85;;;;;;;;;;5006753;28;20022;-70
2022/07/15 09:23:20;;;;;;;6.88;1.08;;;;;;;;;;5005363;28;20543;-70
2022/07/15 09:25:46;;;;;;;8.63;2.10;;;;;;;;;;5025641;22;20041;-86
2022/07/15 09:28:11;;;;;;;10.43;3.50;;;;;;;;;;5008140;28;20097;-86
2022/07/15 09:33:35;;;;;;;9.30;1.77;;;;;;;;;;4998258;28;20069;-85
2022/07/15 09:36:11;;;;;;;9.55;1.50;;;;;;;;;;4983938;28;20049;-86
2022/07/15 09:38:42;;;;;;;6.38;2.80;;;;;;;;;;4990118;28;20038;-85
2022/07/15 09:41:09;;;;;;;12.95;2.08;;;;;;;;;;4994738;28;20390;-86
2022/07/15 09:43:50;;;;;;;15.10;1.88;;;;;;;;;;4990872;28;20068;-86
2022/07/15 09:46:16;;;;;;;7.28;1.75;;;;;;;;;;4984485;28;20026;-86
2022/07/15 09:48:42;;;;;;;6.43;1.40;;;;;;;;;;5008027;28;20053;-85
2022/07/15 09:51:09;;;;;;;10.63;1.92;;;;;;;;;;5002171;28;20136;-86
2022/07/15 09:53:34;;;;;;;7.10;1.42;;;;;;;;;;4999270;28;20033;-85
2022/07/15 09:56:00;;;;;;;8.82;1.73;;;;;;;;;;5018690;28;20037;-84
2022/07/15 09:58:25;;;;;;;3.05;1.15;;;;;;;;;;5000005;28;20022;-86
2022/07/15 10:00:52;;;;;;;8.82;1.45;;;;;;;;;;4993381;28;20018;-86
2022/07/15 10:03:18;;;;;;;5.30;1.10;;;;;;;;;;5009511;28;20497;-86
2022/07/15 10:05:44;;;;;;;3.08;1.52;;;;;;;;;;4999749;28;20018;-86
2022/07/15 10:08:11;;;;;;;5.35;1.15;;;;;;;;;;4993668;28;20029;-87
2022/07/15 10:10:39;;;;;;;9.20;1.42;;;;;;;;;;4991709;28;20421;-86
2022/07/15 10:13:05;;;;;;;7.43;2.33;;;;;;;;;;5010286;28;20017;-86
2022/07/15 10:15:44;;;;;;;6.13;1.50;;;;;;;;;;5011999;28;20062;-86
2022/07/15 10:18:32;;;;;;;7.68;1.80;;;;;;;;;;4998030;28;20474;-86
2022/07/15 10:21:15;;;;;;;3.78;1.40;;;;;;;;;;5006709;28;20018;-86
2022/07/15 10:23:59;;;;;;;5.35;1.67;;;;;;;;;;4992245;28;20010;-86
2022/07/15 10:26:24;;;;;;;5.47;1.42;;;;;;;;;;5005802;28;20057;-85
2022/07/15 10:28:52;;;;;;;5.60;1.40;;;;;;;;;;4998299;28;20057;-85
2022/07/15 10:31:28;;;;;;;5.28;1.45;;;;;;;;;;5017914;28;20413;-86
2022/07/15 10:34:02;;;;;;;4.78;1.67;;;;;;;;;;5008158;28;20465;-87
2022/07/15 10:36:38;;;;;;;7.85;1.75;;;;;;;;;;5004665;28;20639;-86
2022/07/15 10:39:04;;;;;;;7.40;1.80;;;;;;;;;;5008065;28;20445;-86
2022/07/15 10:41:47;;;;;;;9.02;1.95;;;;;;;;;;5006996;28;20110;-86
2022/07/15 10:44:12;;;;;;;7.53;1.88;;;;;;;;;;4994244;28;20105;-87
2022/07/15 10:46:38;;;;;;;9.40;2.30;;;;;;;;;;5023732;28;20106;-87
2022/07/15 10:49:03;;;;;;;5.20;1.87;;;;;;;;;;5012231;28;20037;-86
2022/07/15 10:51:37;;;;;;;10.30;2.47;;;;;;;;;;5007952;28;20305;-86
2022/07/15 10:54:06;;;;;;;6.45;2.05;;;;;;;;;;4991243;28;20034;-87
2022/07/15 10:56:34;;;;;;;7.53;2.23;;;;;;;;;;5039929;28;20501;-87
2022/07/15 10:59:09;;;;;;;7.70;2.05;;;;;;;;;;5051231;28;20032;-84
2022/07/15 11:01:41;;;;;;;5.88;1.73;;;;;;;;;;5042961;28;20023;-84
2022/07/15 11:04:13;;;;;;;7.85;2.35;;;;;;;;;;5030912;28;20025;-85
2022/07/15 11:06:57;;;;;;;5.18;1.70;;;;;;;;;;4999966;28;20029;-86
2022/07/15 11:09:49;;;;;;;5.70;1.90;;;;;;;;;;5026680;28;20033;-86
2022/07/15 11:12:14;;;;;;;11.50;1.60;;;;;;;;;;5006280;28;20038;-86
2022/07/15 11:14:42;;;;;;;7.35;2.72;;;;;;;;;;5009543;28;20030;-85
2022/07/15 11:17:08;;;;;;;6.32;1.58;;;;;;;;;;5039287;28;20026;-85
2022/07/15 11:19:34;;;;;;;9.10;1.58;;;;;;;;;;5006843;28;20101;-86
2022/07/15 11:22:01;;;;;;;5.30;1.15;;;;;;;;;;5010144;28;20053;-85
2022/07/15 11:24:27;;;;;;;7.85;2.20;;;;;;;;;;4990536;28;20009;-85
2022/07/15 11:26:52;;;;;;;6.60;1.90;;;;;;;;;;5012437;28;20021;-86
2022/07/15 11:29:17;;;;;;;11.53;2.03;;;;;;;;;;5007823;28;20030;-85
2022/07/15 11:31:43;;;;;;;7.60;1.40;;;;;;;;;;5004948;28;20343;-87
2022/07/15 11:34:08;;;;;;;4.95;1.52;;;;;;;;;;5032631;28;20309;-86
2022/07/15 11:36:33;;;;;;;4.90;1.42;;;;;;;;;;5005573;28;20048;-86
2022/07/15 11:38:58;;;;;;;6.97;1.40;;;;;;;;;;5036878;28;20032;-86
2022/07/15 11:46:52;;;;;;;5.65;1.17;;;;;;;;;;5007858;28;20164;-86
2022/07/15 11:49:28;;;;;;;7.93;1.35;;;;;;;;;;4987690;28;21987;-86
2022/07/15 11:51:54;;;;;;;8.32;1.45;;;;;;;;;;5007528;28;20032;-86
2022/07/15 11:54:19;;;;;;;4.75;0.95;;;;;;;;;;5030348;28;20021;-85
2022/07/15 11:57:06;;;;;;;8.88;1.40;;;;;;;;;;4993482;28;20516;-86
2022/07/15 11:59:31;;;;;;;4.95;1.38;;;;;;;;;;5002126;28;20997;-86
2022/07/15 12:02:00;;;;;;;4.38;1.45;;;;;;;;;;5023063;28;20029;-86
2022/07/15 12:04:26;;;;;;;8.10;0.82;;;;;;;;;;5009599;28;20022;-87
2022/07/15 12:06:52;;;;;;;7.80;0.90;;;;;;;;;;4999440;28;20573;-85
2022/07/15 12:09:17;;;;;;;5.43;1.23;;;;;;;;;;5029151;28;20629;-86
2022/07/15 12:11:42;;;;;;;7.17;1.50;;;;;;;;;;4988019;28;20280;-85
2022/07/15 12:14:12;;;;;;;2.25;0.73;;;;;;;;;;4989196;28;20272;-86
2022/07/15 12:16:41;;;;;;;6.57;1.00;;;;;;;;;;4998841;28;20022;-84
2022/07/15 12:19:36;;;;;;;6.50;1.50;;;;;;;;;;4995332;28;20032;-86
2022/07/15 12:22:06;;;;;;;6.50;1.08;;;;;;;;;;4985870;28;20356;-86
2022/07/15 12:24:41;;;;;;;3.72;1.00;;;;;;;;;;4992351;28;20022;-86
2022/07/15 12:27:07;;;;;;;9.88;1.30;;;;;;;;;;5037475;28;20037;-86
2022/07/15 12:29:33;;;;;;;4.72;1.15;;;;;;;;;;5029440;28;20076;-86
2022/07/15 12:31:59;;;;;;;10.13;1.27;;;;;;;;;;5018769;28;20032;-86
2022/07/15 12:34:43;;;;;;;7.47;1.60;;;;;;;;;;5000535;28;20030;-86
2022/07/15 12:37:08;;;;;;;4.22;1.30;;;;;;;;;;4970689;28;20026;-86
2022/07/15 12:39:33;;;;;;;8.57;1.20;;;;;;;;;;4963869;28;20036;-85
2022/07/15 12:42:03;;;;;;;4.65;1.23;;;;;;;;;;4961520;28;20159;-86
2022/07/15 12:44:29;;;;;;;4.60;1.05;;;;;;;;;;4999874;28;20034;-86
2022/07/15 12:46:56;;;;;;;7.88;1.52;;;;;;;;;;5005511;28;20029;-86
2022/07/15 12:49:37;;;;;;;7.05;1.55;;;;;;;;;;5026705;28;20030;-85
2022/07/15 12:52:11;;;;;;;3.80;1.70;;;;;;;;;;4992707;28;20084;-87
2022/07/15 12:54:37;;;;;;;7.40;0.90;;;;;;;;;;4996963;28;20030;-86
2022/07/15 12:57:02;;;;;;;6.35;1.00;;;;;;;;;;4992416;28;20021;-85
2022/07/15 12:59:27;;;;;;;5.88;1.08;;;;;;;;;;5001075;28;20464;-86
2022/07/15 13:02:02;;;;;;;4.15;1.65;;;;;;;;;;5008877;28;20542;-86
2022/07/15 13:04:28;;;;;;;4.30;1.30;;;;;;;;;;4992780;28;20038;-85
2022/07/15 13:06:53;;;;;;;4.25;0.90;;;;;;;;;;5000212;28;20033;-85
2022/07/15 13:09:18;;;;;;;7.40;1.50;;;;;;;;;;4998697;28;20641;-85
2022/07/15 13:11:43;;;;;;;7.57;1.03;;;;;;;;;;5007537;28;20029;-86
2022/07/15 13:14:08;;;;;;;4.75;0.75;;;;;;;;;;5000009;28;20311;-85
2022/07/15 13:16:34;;;;;;;4.53;0.73;;;;;;;;;;4994160;28;20021;-86
2022/07/15 13:18:59;;;;;;;4.95;0.88;;;;;;;;;;5008719;28;20276;-85
2022/07/15 13:21:24;;;;;;;11.17;1.33;;;;;;;;;;5006901;28;20026;-85
2022/07/15 13:23:49;;;;;;;3.73;0.73;;;;;;;;;;5008555;28;20276;-86
2022/07/15 13:26:15;;;;;;;3.50;0.75;;;;;;;;;;4997994;28;20281;-85
2022/07/15 13:28:40;;;;;;;4.72;0.77;;;;;;;;;;5000082;28;20575;-85
2022/07/15 13:31:05;;;;;;;8.20;0.87;;;;;;;;;;5026179;28;20371;-84
2022/07/15 13:33:31;;;;;;;7.35;1.27;;;;;;;;;;5010160;28;20637;-86
2022/07/15 13:35:57;;;;;;;3.28;1.13;;;;;;;;;;5023146;28;20044;-86
2022/07/15 13:38:22;;;;;;;4.65;0.70;;;;;;;;;;5010833;28;20030;-87
2022/07/15 13:40:47;;;;;;;4.18;0.77;;;;;;;;;;5024918;28;20022;-85
2022/07/15 13:43:13;;;;;;;4.37;0.87;;;;;;;;;;5013429;28;20022;-85
2022/07/15 13:45:38;;;;;;;5.15;0.95;;;;;;;;;;4999465;28;20271;-85
2022/07/15 13:48:04;;;;;;;5.05;1.00;;;;;;;;;;5012279;28;20049;-86
2022/07/15 13:53:13;;;;;;;5.32;0.80;;;;;;;;;;5011478;28;20360;-86
2022/07/15 13:55:42;;;;;;;6.83;0.83;;;;;;;;;;5008713;28;20042;-85
2022/07/15 13:58:07;;;;;;;5.35;0.98;;;;;;;;;;5004792;28;20281;-86
2022/07/15 14:00:35;;;;;;;4.50;1.02;;;;;;;;;;5003813;28;20029;-86
2022/07/15 14:03:00;;;;;;;5.75;1.00;;;;;;;;;;5035252;28;20109;-85
2022/07/15 14:05:26;;;;;;;5.30;1.00;;;;;;;;;;5011046;28;20509;-87
2022/07/15 14:07:51;;;;;;;5.15;1.13;;;;;;;;;;5033966;28;20315;-86
2022/07/15 14:10:16;;;;;;;5.55;0.95;;;;;;;;;;5035998;28;20013;-86
2022/07/15 14:12:41;;;;;;;1.63;0.70;;;;;;;;;;5010602;28;20025;-86
2022/07/15 14:15:07;;;;;;;6.57;1.55;;;;;;;;;;5043367;28;20268;-86
2022/07/15 14:17:32;;;;;;;10.18;1.05;;;;;;;;;;5043848;28;20021;-86
2022/07/15 14:19:58;;;;;;;6.05;0.98;;;;;;;;;;5012090;28;20025;-86
2022/07/15 14:22:26;;;;;;;3.58;0.80;;;;;;;;;;5032666;28;20432;-87
2022/07/15 14:24:52;;;;;;;2.42;0.77;;;;;;;;;;5037516;28;20105;-86
2022/07/15 14:27:17;;;;;;;3.47;0.73;;;;;;;;;;5042285;28;20080;-85
2022/07/15 14:29:42;;;;;;;12.17;1.20;;;;;;;;;;5044702;28;20025;-86
2022/07/15 14:32:08;;;;;;;5.43;1.00;;;;;;;;;;5010882;28;20664;-86
2022/07/15 14:34:33;;;;;;;3.88;0.98;;;;;;;;;;4991042;28;20022;-86
2022/07/15 14:36:59;;;;;;;4.32;0.80;;;;;;;;;;4999167;28;20028;-86
2022/07/15 14:39:24;;;;;;;4.63;1.67;;;;;;;;;;5028242;23;20037;-71
2022/07/15 14:41:49;;;;;;;3.40;0.70;;;;;;;;;;5030467;28;20013;-71
2022/07/15 14:44:15;;;;;;;5.72;0.73;;;;;;;;;;5029809;28;20366;-71
2022/07/15 14:46:40;;;;;;;8.47;1.10;;;;;;;;;;5028577;28;20033;-71
2022/07/15 14:49:05;;;;;;;7.17;1.20;;;;;;;;;;5027687;28;20021;-71